createdAt,value
2018-07-22T00:02:06.720Z,22.30
2018-07-22T00:04:35.603Z,22.20
2018-07-22T00:07:04.800Z,22.30
2018-07-22T00:09:33.507Z,22.30
2018-07-22T00:12:02.138Z,22.30
2018-07-22T00:14:30.773Z,22.30
2018-07-22T00:16:59.320Z,22.30
2018-07-22T00:19:27.888Z,22.30
2018-07-22T00:21:56.985Z,22.40
2018-07-22T00:24:25.920Z,22.40
2018-07-22T00:26:54.770Z,22.40
2018-07-22T00:29:23.608Z,22.30
2018-07-22T00:31:52.824Z,22.30
2018-07-22T00:34:21.398Z,22.30
2018-07-22T00:36:49.989Z,22.30
2018-07-22T00:39:18.922Z,22.20
2018-07-22T00:41:48.384Z,22.30
2018-07-22T00:44:17.023Z,22.30
2018-07-22T00:46:46.052Z,22.30
2018-07-22T00:49:14.666Z,22.10
2018-07-22T00:51:43.262Z,22.20
2018-07-22T00:54:12.091Z,22.20
2018-07-22T00:56:40.861Z,22.20
2018-07-22T00:59:09.599Z,22.20
2018-07-22T01:01:38.635Z,22.20
2018-07-22T01:04:07.619Z,22.20
2018-07-22T01:06:36.214Z,22.10
2018-07-22T01:09:07.956Z,22.10
2018-07-22T01:11:37.348Z,22.00
2018-07-22T01:14:06.211Z,22.00
2018-07-22T01:16:34.974Z,21.90
2018-07-22T01:19:04.791Z,21.80
2018-07-22T01:21:33.743Z,21.80
2018-07-22T01:26:31.440Z,21.70
2018-07-22T01:29:00.047Z,21.80
2018-07-22T01:31:29.135Z,21.80
2018-07-22T01:33:57.675Z,21.80
2018-07-22T01:36:26.290Z,21.70
2018-07-22T01:38:54.840Z,21.70
2018-07-22T01:41:23.445Z,21.70
2018-07-22T01:43:52.283Z,21.70
2018-07-22T01:46:20.996Z,21.70
2018-07-22T01:48:49.586Z,21.70
2018-07-22T01:51:18.626Z,21.70
2018-07-22T01:53:47.518Z,21.70
2018-07-22T01:56:16.264Z,21.60
2018-07-22T01:58:45.357Z,21.60
2018-07-22T02:01:14.199Z,21.50
2018-07-22T02:03:42.703Z,21.60
2018-07-22T02:06:11.403Z,21.60
2018-07-22T02:08:39.942Z,21.60
2018-07-22T02:11:08.621Z,21.60
2018-07-22T02:13:37.170Z,21.60
2018-07-22T02:16:05.955Z,21.50
2018-07-22T02:18:34.579Z,21.50
2018-07-22T02:21:03.213Z,21.50
2018-07-22T02:23:32.208Z,21.60
2018-07-22T02:26:00.851Z,21.60
2018-07-22T02:28:29.604Z,21.60
2018-07-22T02:30:58.214Z,21.60
2018-07-22T02:33:27.250Z,21.60
2018-07-22T02:35:55.803Z,21.60
2018-07-22T02:38:24.536Z,21.60
2018-07-22T02:40:53.157Z,21.60
2018-07-22T02:43:22.231Z,21.60
2018-07-22T02:45:50.847Z,21.60
2018-07-22T02:48:19.443Z,21.60
2018-07-22T02:50:48.362Z,21.60
2018-07-22T02:53:17.355Z,21.60
2018-07-22T02:55:46.318Z,21.60
2018-07-22T02:58:15.622Z,21.60
2018-07-22T03:00:44.940Z,21.60
2018-07-22T03:03:13.682Z,21.70
2018-07-22T03:05:42.238Z,21.70
2018-07-22T03:08:11.004Z,21.80
2018-07-22T03:10:39.614Z,21.80
2018-07-22T03:13:08.148Z,21.80
2018-07-22T03:15:37.097Z,21.80
2018-07-22T03:18:05.807Z,21.90
2018-07-22T03:20:34.422Z,21.90
2018-07-22T03:23:02.999Z,21.90
2018-07-22T03:25:31.563Z,21.90
2018-07-22T03:28:00.451Z,21.90
2018-07-22T03:30:29.657Z,22.00
2018-07-22T03:32:58.752Z,22.00
2018-07-22T03:35:27.664Z,22.00
2018-07-22T03:37:56.743Z,22.00
2018-07-22T03:40:25.786Z,22.00
2018-07-22T03:42:54.382Z,22.10
2018-07-22T03:47:51.767Z,22.00
2018-07-22T03:52:49.651Z,21.90
2018-07-22T03:55:19.091Z,21.90
2018-07-22T03:57:47.896Z,22.00
2018-07-22T04:00:17.380Z,22.00
2018-07-22T04:02:45.995Z,22.10
2018-07-22T04:05:15.169Z,22.10
2018-07-22T04:07:43.958Z,22.00
2018-07-22T04:10:12.936Z,22.10
2018-07-22T04:12:42.099Z,22.10
2018-07-22T04:15:11.156Z,22.10
2018-07-22T04:17:40.765Z,22.10
2018-07-22T04:20:09.598Z,22.00
2018-07-22T04:25:07.043Z,22.10
2018-07-22T04:27:36.436Z,22.00
2018-07-22T04:30:06.038Z,22.00
2018-07-22T04:32:35.591Z,22.00
2018-07-22T04:35:05.399Z,22.00
2018-07-22T04:40:03.873Z,22.10
2018-07-22T04:42:32.914Z,22.00
2018-07-22T04:45:02.254Z,22.00
2018-07-22T04:47:31.558Z,22.00
2018-07-22T04:50:01.581Z,22.00
2018-07-22T04:52:30.571Z,21.90
2018-07-22T04:54:59.520Z,21.90
2018-07-22T04:57:28.580Z,22.00
2018-07-22T04:59:57.899Z,22.00
2018-07-22T05:02:27.030Z,22.10
2018-07-22T05:04:56.443Z,21.90
2018-07-22T05:07:26.259Z,21.90
2018-07-22T05:09:54.957Z,21.90
2018-07-22T05:12:24.819Z,22.00
2018-07-22T05:14:54.364Z,21.90
2018-07-22T05:17:23.885Z,21.90
2018-07-22T05:19:53.243Z,22.00
2018-07-22T05:22:21.932Z,22.00
2018-07-22T05:24:51.211Z,22.10
2018-07-22T05:27:20.127Z,22.10
2018-07-22T05:29:48.908Z,22.10
2018-07-22T05:32:17.484Z,22.10
2018-07-22T05:37:14.805Z,22.20
2018-07-22T05:39:43.831Z,22.20
2018-07-22T05:44:41.467Z,22.20
2018-07-22T05:47:10.786Z,22.20
2018-07-22T05:49:39.575Z,22.10
2018-07-22T05:52:08.806Z,22.20
2018-07-22T05:57:07.152Z,22.10
2018-07-22T05:59:36.128Z,22.10
2018-07-22T06:02:05.053Z,22.10
2018-07-22T06:04:34.133Z,22.20
2018-07-22T06:07:03.101Z,22.20
2018-07-22T06:09:31.698Z,22.30
2018-07-22T06:12:00.648Z,22.20
2018-07-22T06:14:29.495Z,22.30
2018-07-22T06:16:58.163Z,22.30
2018-07-22T06:19:27.477Z,22.30
2018-07-22T06:21:56.040Z,22.30
2018-07-22T06:24:25.120Z,22.40
2018-07-22T06:26:53.775Z,22.40
2018-07-22T06:29:23.324Z,22.40
2018-07-22T06:31:52.416Z,22.40
2018-07-22T06:34:21.067Z,22.40
2018-07-22T06:36:50.483Z,22.40
2018-07-22T06:39:19.043Z,22.40
2018-07-22T06:41:47.628Z,22.40
2018-07-22T06:44:16.501Z,22.30
2018-07-22T06:46:45.319Z,22.30
2018-07-22T06:49:13.832Z,22.40
2018-07-22T06:51:42.552Z,22.40
2018-07-22T06:54:11.148Z,22.50
2018-07-22T06:56:39.954Z,22.40
2018-07-22T06:59:08.534Z,22.40
2018-07-22T07:01:37.098Z,22.30
2018-07-22T07:04:05.732Z,22.30
2018-07-22T07:06:34.472Z,22.40
2018-07-22T07:09:03.080Z,22.40
2018-07-22T07:11:32.359Z,22.50
2018-07-22T07:14:01.196Z,22.50
2018-07-22T07:16:30.591Z,22.50
2018-07-22T07:18:59.217Z,22.50
2018-07-22T07:21:28.546Z,22.60
2018-07-22T07:23:57.283Z,22.70
2018-07-22T07:26:25.907Z,22.70
2018-07-22T07:28:54.673Z,22.80
2018-07-22T07:31:23.462Z,22.80
2018-07-22T07:33:52.661Z,22.90
2018-07-22T07:36:21.749Z,22.90
2018-07-22T07:38:50.736Z,23.00
2018-07-22T07:41:19.400Z,23.00
2018-07-22T07:43:47.955Z,23.10
2018-07-22T07:46:16.527Z,23.00
2018-07-22T07:48:46.033Z,23.10
2018-07-22T07:51:16.330Z,23.20
2018-07-22T07:53:45.555Z,23.10
2018-07-22T07:56:14.174Z,23.20
2018-07-22T07:58:43.150Z,23.20
2018-07-22T08:03:40.117Z,23.30
2018-07-22T08:06:08.823Z,23.30
2018-07-22T08:08:37.526Z,23.20
2018-07-22T08:11:06.950Z,23.20
2018-07-22T08:13:35.544Z,23.20
2018-07-22T08:16:04.371Z,23.20
2018-07-22T08:18:33.448Z,23.10
2018-07-22T08:21:02.495Z,23.20
2018-07-22T08:23:31.211Z,23.20
2018-07-22T08:25:59.884Z,23.20
2018-07-22T08:28:39.639Z,23.20
2018-07-22T08:31:08.753Z,23.40
2018-07-22T08:33:37.630Z,23.40
2018-07-22T08:36:07.175Z,23.40
2018-07-22T08:38:36.369Z,23.40
2018-07-22T08:41:05.475Z,23.40
2018-07-22T08:43:34.017Z,23.40
2018-07-22T08:46:02.689Z,23.40
2018-07-22T08:48:31.337Z,23.40
2018-07-22T08:53:28.591Z,23.40
2018-07-22T08:55:57.201Z,23.50
2018-07-22T08:58:25.860Z,23.40
2018-07-22T09:00:54.450Z,23.40
2018-07-22T09:03:23.477Z,23.30
2018-07-22T09:05:52.671Z,23.40
2018-07-22T09:08:21.583Z,23.40
2018-07-22T09:10:50.845Z,23.40
2018-07-22T09:13:19.725Z,23.30
2018-07-22T09:15:48.307Z,23.40
2018-07-22T09:18:17.005Z,23.40
2018-07-22T09:20:45.870Z,23.50
2018-07-22T09:23:14.946Z,23.40
2018-07-22T09:25:43.712Z,23.40
2018-07-22T09:28:12.272Z,23.50
2018-07-22T09:30:41.392Z,23.50
2018-07-22T09:33:10.265Z,23.50
2018-07-22T09:35:38.912Z,23.40
2018-07-22T09:38:08.741Z,23.40
2018-07-22T09:43:06.973Z,23.30
2018-07-22T09:45:35.528Z,23.40
2018-07-22T09:48:04.691Z,23.40
2018-07-22T09:50:33.246Z,23.50
2018-07-22T09:53:02.203Z,23.60
2018-07-22T09:55:31.085Z,23.60
2018-07-22T10:00:33.699Z,23.60
2018-07-22T10:03:02.419Z,23.60
2018-07-22T10:05:31.139Z,23.60
2018-07-22T10:07:59.787Z,23.70
2018-07-22T10:10:28.802Z,23.70
2018-07-22T10:12:57.524Z,23.60
2018-07-22T10:15:26.113Z,23.70
2018-07-22T10:20:23.263Z,23.70
2018-07-22T10:22:52.081Z,23.70
2018-07-22T10:25:21.277Z,23.80
2018-07-22T10:27:50.106Z,23.80
2018-07-22T10:30:18.886Z,23.80
2018-07-22T10:32:47.555Z,23.80
2018-07-22T10:35:16.259Z,23.80
2018-07-22T10:37:45.254Z,23.80
2018-07-22T10:40:14.952Z,23.90
2018-07-22T10:42:43.999Z,23.90
2018-07-22T10:45:12.935Z,24.00
2018-07-22T10:47:41.823Z,24.10
2018-07-22T10:50:11.003Z,24.10
2018-07-22T10:52:39.587Z,24.00
2018-07-22T10:55:08.250Z,24.10
2018-07-22T10:57:37.063Z,24.10
2018-07-22T11:00:06.712Z,24.10
2018-07-22T11:02:35.740Z,24.10
2018-07-22T11:05:05.504Z,24.10
2018-07-22T11:07:34.693Z,24.10
2018-07-22T11:10:04.438Z,24.20
2018-07-22T11:12:37.532Z,24.20
2018-07-22T11:15:06.848Z,24.10
2018-07-22T11:17:35.561Z,24.20
2018-07-22T11:20:04.923Z,24.30
2018-07-22T11:22:34.303Z,24.40
2018-07-22T11:25:04.105Z,24.40
2018-07-22T11:27:33.428Z,24.40
2018-07-22T11:30:02.424Z,24.50
2018-07-22T11:32:32.011Z,24.60
2018-07-22T11:35:02.413Z,24.60
2018-07-22T11:37:31.339Z,24.70
2018-07-22T11:40:00.832Z,24.70
2018-07-22T11:42:30.316Z,24.70
2018-07-22T11:44:59.447Z,24.80
2018-07-22T11:47:28.121Z,24.90
2018-07-22T11:49:56.879Z,24.90
2018-07-22T11:52:26.030Z,24.90
2018-07-22T11:54:55.864Z,24.90
2018-07-22T11:57:26.891Z,24.90
2018-07-22T11:59:55.872Z,24.80
2018-07-22T12:02:24.459Z,24.80
2018-07-22T12:04:53.228Z,24.80
2018-07-22T12:07:22.588Z,24.80
2018-07-22T12:09:51.217Z,24.80
2018-07-22T12:12:19.879Z,24.90
2018-07-22T12:14:48.589Z,24.90
2018-07-22T12:17:17.609Z,24.90
2018-07-22T12:19:46.695Z,24.90
2018-07-22T12:22:16.288Z,24.90
2018-07-22T12:24:45.613Z,24.80
2018-07-22T12:27:14.671Z,24.80
2018-07-22T12:29:43.952Z,24.70
2018-07-22T12:32:13.890Z,24.80
2018-07-22T12:34:43.226Z,24.80
2018-07-22T12:37:11.868Z,24.70
2018-07-22T12:39:41.212Z,24.80
2018-07-22T12:42:10.276Z,24.80
2018-07-22T12:44:39.286Z,24.80
2018-07-22T12:47:08.380Z,24.80
2018-07-22T12:49:37.579Z,24.90
2018-07-22T12:52:07.169Z,24.90
2018-07-22T12:54:36.284Z,24.90
2018-07-22T12:57:05.733Z,24.90
2018-07-22T12:59:34.762Z,24.90
2018-07-22T13:02:03.756Z,24.90
2018-07-22T13:04:32.974Z,24.90
2018-07-22T13:07:02.077Z,24.80
2018-07-22T13:09:32.643Z,24.80
2018-07-22T13:12:01.574Z,24.80
2018-07-22T13:14:31.329Z,24.80
2018-07-22T13:17:00.723Z,24.80
2018-07-22T13:22:00.316Z,24.70
2018-07-22T13:24:28.978Z,24.80
2018-07-22T13:26:57.662Z,24.80
2018-07-22T13:29:26.312Z,24.70
2018-07-22T13:31:55.056Z,24.70
2018-07-22T13:34:24.082Z,24.60
2018-07-22T13:36:53.262Z,24.50
2018-07-22T13:39:22.846Z,24.50
2018-07-22T13:41:51.750Z,24.40
2018-07-22T13:44:21.303Z,24.30
2018-07-22T13:46:49.941Z,24.20
2018-07-22T13:49:20.080Z,24.10
2018-07-22T13:51:49.475Z,24.00
2018-07-22T13:54:18.541Z,24.00
2018-07-22T13:56:47.204Z,23.90
2018-07-22T13:59:16.038Z,23.90
2018-07-22T14:01:45.958Z,23.90
2018-07-22T14:04:15.407Z,24.00
2018-07-22T14:06:45.011Z,24.10
2018-07-22T14:09:13.812Z,24.00
2018-07-22T14:11:42.847Z,24.10
2018-07-22T14:14:12.231Z,24.10
2018-07-22T14:16:41.428Z,24.10
2018-07-22T14:19:10.095Z,24.10
2018-07-22T14:21:39.725Z,24.20
2018-07-22T14:24:08.543Z,24.20
2018-07-22T14:26:38.104Z,24.20
2018-07-22T14:29:06.781Z,24.30
2018-07-22T14:31:36.018Z,24.20
2018-07-22T14:34:04.923Z,24.30
2018-07-22T14:36:33.558Z,24.30
2018-07-22T14:39:02.484Z,24.30
2018-07-22T14:41:31.701Z,24.40
2018-07-22T14:44:00.835Z,24.40
2018-07-22T14:46:29.995Z,24.40
2018-07-22T14:48:59.050Z,24.40
2018-07-22T14:51:29.293Z,24.40
2018-07-22T14:53:58.880Z,24.40
2018-07-22T14:56:28.208Z,24.40
2018-07-22T14:58:56.851Z,24.40
2018-07-22T15:03:55.528Z,24.40
2018-07-22T15:06:24.592Z,24.40
2018-07-22T15:08:53.683Z,24.40
2018-07-22T15:11:23.272Z,24.20
2018-07-22T15:13:53.351Z,24.20
2018-07-22T15:16:23.316Z,24.10
2018-07-22T15:18:53.142Z,24.10
2018-07-22T15:21:22.134Z,24.10
2018-07-22T15:23:51.231Z,24.00
2018-07-22T15:26:20.122Z,24.00
2018-07-22T15:28:49.231Z,24.00
2018-07-22T15:31:17.864Z,24.00
2018-07-22T15:33:47.373Z,24.00
2018-07-22T15:36:16.712Z,24.10
2018-07-22T15:38:47.276Z,24.00
2018-07-22T15:41:16.217Z,24.00
2018-07-22T15:43:46.186Z,24.00
2018-07-22T15:46:15.940Z,24.00
2018-07-22T15:48:45.108Z,24.00
2018-07-22T15:51:15.187Z,24.10
2018-07-22T15:53:44.581Z,24.10
2018-07-22T15:56:13.285Z,24.10
2018-07-22T15:58:42.520Z,24.10
2018-07-22T16:01:11.464Z,24.00
2018-07-22T16:03:40.801Z,24.10
2018-07-22T16:06:09.859Z,24.10
2018-07-22T16:08:38.722Z,24.10
2018-07-22T16:11:07.535Z,24.10
2018-07-22T16:13:37.318Z,24.10
2018-07-22T16:16:05.984Z,24.10
2018-07-22T16:21:04.158Z,24.10
2018-07-22T16:23:33.191Z,24.10
2018-07-22T16:26:02.369Z,24.00
2018-07-22T16:28:31.083Z,24.00
2018-07-22T16:31:00.358Z,24.00
2018-07-22T16:33:29.606Z,24.00
2018-07-22T16:35:58.913Z,24.10
2018-07-22T16:38:28.156Z,24.00
2018-07-22T16:40:57.609Z,24.10
2018-07-22T16:43:26.290Z,24.10
2018-07-22T16:45:55.496Z,24.10
2018-07-22T16:48:24.882Z,24.10
2018-07-22T16:50:53.765Z,24.20
2018-07-22T16:53:23.180Z,24.20
2018-07-22T16:55:51.972Z,24.20
2018-07-22T16:58:20.846Z,24.20
2018-07-22T17:00:49.968Z,24.20
2018-07-22T17:03:18.952Z,24.20
2018-07-22T17:05:47.620Z,24.20
2018-07-22T17:08:16.280Z,24.10
2018-07-22T17:10:44.961Z,24.20
2018-07-22T17:13:13.593Z,24.20
2018-07-22T17:15:43.075Z,24.20
2018-07-22T17:18:11.864Z,24.20
2018-07-22T17:20:41.116Z,24.10
2018-07-22T17:23:09.933Z,24.10
2018-07-22T17:25:39.176Z,24.10
2018-07-22T17:28:08.403Z,24.10
2018-07-22T17:30:38.796Z,24.10
2018-07-22T17:33:08.046Z,24.00
2018-07-22T17:35:36.994Z,24.00
2018-07-22T17:38:05.647Z,24.00
2018-07-22T17:40:34.472Z,24.00
2018-07-22T17:43:03.809Z,23.90
2018-07-22T17:45:32.951Z,23.80
2018-07-22T17:48:01.773Z,23.80
2018-07-22T17:50:30.600Z,23.80
2018-07-22T17:52:59.254Z,23.80
2018-07-22T17:55:28.367Z,23.70
2018-07-22T17:57:57.037Z,23.60
2018-07-22T18:00:26.426Z,23.70
2018-07-22T18:03:13.149Z,23.70
2018-07-22T18:05:42.671Z,23.70
2018-07-22T18:08:11.303Z,23.70
2018-07-22T18:10:40.402Z,23.70
2018-07-22T18:13:09.267Z,23.70
2018-07-22T18:15:37.996Z,23.60
2018-07-22T18:18:06.593Z,23.70
2018-07-22T18:20:35.475Z,23.70
2018-07-22T18:23:04.506Z,23.60
2018-07-22T18:25:33.126Z,23.60
2018-07-22T18:28:01.914Z,23.60
2018-07-22T18:30:31.357Z,23.50
2018-07-22T18:33:00.015Z,23.60
2018-07-22T18:35:29.028Z,23.60
2018-07-22T18:37:57.695Z,23.50
2018-07-22T18:40:27.460Z,23.60
2018-07-22T18:42:56.739Z,23.50
2018-07-22T18:45:26.037Z,23.60
2018-07-22T18:47:55.107Z,23.60
2018-07-22T18:50:24.145Z,23.60
2018-07-22T18:52:52.944Z,23.60
2018-07-22T18:55:22.826Z,23.60
2018-07-22T18:57:51.838Z,23.50
2018-07-22T19:00:20.483Z,23.50
2018-07-22T19:02:50.143Z,21.80
2018-07-22T19:05:19.071Z,23.40
2018-07-22T19:07:48.284Z,23.40
2018-07-22T19:10:17.958Z,23.40
2018-07-22T19:12:47.331Z,23.40
2018-07-22T19:15:16.088Z,23.40
2018-07-22T19:17:45.257Z,23.40
2018-07-22T19:20:14.136Z,23.30
2018-07-22T19:22:43.263Z,23.30
2018-07-22T19:25:11.996Z,23.30
2018-07-22T19:27:41.396Z,23.30
2018-07-22T19:30:10.303Z,23.30
2018-07-22T19:32:39.212Z,23.20
2018-07-22T19:35:09.016Z,23.30
2018-07-22T19:37:37.873Z,23.30
2018-07-22T19:40:07.320Z,23.20
2018-07-22T19:42:36.856Z,23.20
2018-07-22T19:45:05.989Z,23.10
2018-07-22T19:47:35.167Z,23.00
2018-07-22T19:50:04.266Z,22.90
2018-07-22T19:52:33.015Z,22.90
2018-07-22T19:55:01.761Z,22.80
2018-07-22T19:57:30.727Z,22.90
2018-07-22T19:59:59.841Z,23.00
2018-07-22T20:02:28.778Z,23.00
2018-07-22T20:04:58.591Z,23.00
2018-07-22T20:07:27.999Z,22.90
2018-07-22T20:09:57.061Z,22.80
2018-07-22T20:12:25.709Z,22.90
2018-07-22T20:15:00.247Z,22.90
2018-07-22T20:17:29.330Z,22.90
2018-07-22T20:19:58.410Z,22.90
2018-07-22T20:22:27.470Z,22.90
2018-07-22T20:24:57.192Z,22.90
2018-07-22T20:27:26.028Z,22.90
2018-07-22T20:29:55.688Z,22.90
2018-07-22T20:32:25.531Z,23.00
2018-07-22T20:37:26.355Z,23.00
2018-07-22T20:39:56.017Z,23.10
2018-07-22T20:42:24.707Z,23.10
2018-07-22T20:44:54.084Z,23.00
2018-07-22T20:47:22.739Z,23.00
2018-07-22T20:49:51.694Z,22.90
2018-07-22T20:52:20.671Z,22.90
2018-07-22T20:54:50.487Z,23.00
2018-07-22T20:57:20.243Z,23.10
2018-07-22T20:59:48.925Z,23.10
2018-07-22T21:02:18.512Z,23.10
2018-07-22T21:04:47.421Z,23.00
2018-07-22T21:07:16.193Z,23.00
2018-07-22T21:09:44.895Z,23.00
2018-07-22T21:13:21.001Z,23.00
2018-07-22T21:15:50.051Z,22.90
2018-07-22T21:20:47.792Z,22.80
2018-07-22T21:23:16.800Z,22.90
2018-07-22T21:25:46.207Z,22.90
2018-07-22T21:28:15.355Z,23.00
2018-07-22T21:30:44.243Z,23.00
2018-07-22T21:33:13.116Z,23.10
2018-07-22T21:35:47.251Z,23.00
2018-07-22T21:38:16.148Z,23.00
2018-07-22T21:40:45.119Z,22.90
2018-07-22T21:43:13.923Z,22.90
2018-07-22T21:45:43.961Z,23.00
2018-07-22T21:48:12.723Z,23.00
2018-07-22T21:50:42.153Z,23.00
2018-07-22T21:53:10.817Z,23.00
2018-07-22T21:55:39.871Z,23.00
2018-07-22T21:58:08.559Z,23.00
2018-07-22T22:00:43.304Z,22.90
2018-07-22T22:03:12.362Z,22.90
2018-07-22T22:05:41.090Z,22.90
2018-07-22T22:08:09.936Z,22.90
2018-07-22T22:10:38.571Z,22.90
2018-07-22T22:13:07.167Z,22.90
2018-07-22T22:15:35.695Z,22.90
2018-07-22T22:18:05.531Z,22.80
2018-07-22T22:20:34.607Z,22.70
2018-07-22T22:23:03.340Z,22.70
2018-07-22T22:28:00.689Z,22.80
2018-07-22T22:30:29.210Z,22.80
2018-07-22T22:32:57.962Z,22.80
2018-07-22T22:35:26.780Z,22.80
2018-07-22T22:37:55.503Z,22.90
2018-07-22T22:40:24.093Z,22.80
2018-07-22T22:42:53.140Z,22.80
2018-07-22T22:45:21.759Z,22.70
2018-07-22T22:47:50.320Z,22.60
2018-07-22T22:50:18.937Z,22.70
2018-07-22T22:52:48.516Z,22.80
2018-07-22T22:55:17.036Z,22.80
2018-07-22T22:57:56.837Z,22.70
2018-07-22T23:00:25.420Z,22.70
2018-07-22T23:02:54.245Z,22.70
2018-07-22T23:07:51.055Z,22.80
2018-07-22T23:12:48.050Z,22.70
2018-07-22T23:15:16.602Z,22.60
2018-07-22T23:17:45.147Z,22.50
2018-07-22T23:20:13.888Z,22.50
2018-07-22T23:22:42.402Z,22.60
2018-07-22T23:25:11.364Z,22.60
2018-07-22T23:27:39.914Z,22.60
2018-07-22T23:30:09.015Z,22.60
2018-07-22T23:32:37.664Z,22.60
2018-07-22T23:35:06.519Z,22.60
2018-07-22T23:37:35.318Z,22.60
2018-07-22T23:40:04.423Z,22.60
2018-07-22T23:42:33.018Z,22.60
2018-07-22T23:45:01.638Z,22.60
2018-07-22T23:47:30.535Z,22.60
2018-07-22T23:49:59.568Z,22.60
2018-07-22T23:52:28.190Z,22.60
2018-07-22T23:54:57.389Z,22.60
2018-07-22T23:57:25.969Z,22.60
2018-07-22T23:59:55.066Z,22.60
